Time;durP1;ratioP1;P1;durP2;ratioP2;P2;SDS_P1;SDS_P2;PMS_P1;PMS_P2;Temp;Humidity;BMP_temperature;BMP_pressure;BME280_temperature;BME280_humidity;BME280_pressure;Samples;Min_cycle;Max_cycle;Signal;HPM_P1;HPM_P2
2022/05/09 00:01:38;;;;;;;14.18;5.30;;;;;;;10.60;71.90;102627.38;5115487;28;20034;-66
2022/05/09 00:04:04;;;;;;;14.20;5.40;;;;;;;10.58;71.51;102616.00;5115204;28;20347;-68
2022/05/09 00:06:29;;;;;;;13.23;5.10;;;;;;;10.58;71.47;102626.47;5115047;28;20024;-67
2022/05/09 00:08:54;;;;;;;14.57;5.38;;;;;;;10.55;71.55;102617.72;5115099;28;20426;-67
2022/05/09 00:11:20;;;;;;;15.07;4.88;;;;;;;10.44;71.23;102609.69;5114968;28;20095;-65
2022/05/09 00:13:45;;;;;;;14.77;5.03;;;;;;;10.48;71.25;102618.47;5115075;28;20039;-66
2022/05/09 00:16:10;;;;;;;11.13;5.00;;;;;;;10.49;71.06;102618.50;5114979;28;20116;-66
2022/05/09 00:18:36;;;;;;;13.88;5.05;;;;;;;10.43;70.50;102611.41;5115114;28;20438;-68
2022/05/09 00:21:02;;;;;;;12.32;5.28;;;;;;;10.39;70.84;102612.22;5115294;28;20342;-68
2022/05/09 00:23:27;;;;;;;11.75;4.50;;;;;;;10.32;70.75;102604.25;5114809;28;20026;-67
2022/05/09 00:25:52;;;;;;;11.68;5.28;;;;;;;10.34;70.82;102602.56;5096831;28;20035;-67
2022/05/09 00:28:18;;;;;;;12.55;5.10;;;;;;;10.21;71.03;102605.84;5114933;28;20028;-65
2022/05/09 00:30:43;;;;;;;11.93;5.10;;;;;;;10.27;71.03;102601.56;5115160;28;20039;-66
2022/05/09 00:33:08;;;;;;;11.98;4.95;;;;;;;10.28;71.50;102607.69;5115048;28;20381;-67
2022/05/09 00:35:35;;;;;;;10.23;4.70;;;;;;;10.07;71.49;102595.97;5114892;28;20038;-67
2022/05/09 00:38:01;;;;;;;13.00;4.95;;;;;;;10.13;71.00;102609.16;5114905;28;20118;-67
2022/05/09 00:40:26;;;;;;;12.82;4.93;;;;;;;10.15;71.48;102597.84;5098421;28;20426;-66
2022/05/09 00:42:53;;;;;;;11.65;4.47;;;;;;;10.06;71.27;102606.41;5118727;28;20031;-66
2022/05/09 00:45:22;;;;;;;13.45;4.72;;;;;;;10.03;71.91;102609.88;5118856;28;20035;-65
2022/05/09 00:47:48;;;;;;;9.45;4.78;;;;;;;9.95;72.23;102610.59;5118266;28;20470;-68
2022/05/09 00:50:19;;;;;;;12.88;4.82;;;;;;;10.00;72.07;102608.94;5118586;28;20031;-66
2022/05/09 00:52:48;;;;;;;11.30;4.50;;;;;;;9.91;72.36;102604.41;5118451;28;20346;-65
2022/05/09 00:55:18;;;;;;;11.43;4.80;;;;;;;9.96;72.11;102608.00;5117957;28;20039;-66
2022/05/09 00:57:50;;;;;;;9.43;5.03;;;;;;;9.86;72.75;102603.47;5118181;28;20041;-66
2022/05/09 01:00:19;;;;;;;10.38;5.13;;;;;;;9.88;72.39;102608.69;5118436;28;20027;-66
2022/05/09 01:02:49;;;;;;;10.45;4.35;;;;;;;9.85;72.52;102606.94;5118319;28;20046;-66
2022/05/09 01:05:15;;;;;;;10.48;4.90;;;;;;;9.71;72.89;102597.94;5118122;28;20059;-66
2022/05/09 01:07:42;;;;;;;10.98;4.43;;;;;;;9.67;73.12;102604.00;5118378;28;20028;-69
2022/05/09 01:10:14;;;;;;;12.73;5.57;;;;;;;9.72;72.66;102595.34;5118107;28;20078;-66
2022/05/09 01:12:42;;;;;;;12.23;4.78;;;;;;;9.72;72.87;102590.13;5118126;28;20031;-66
2022/05/09 01:15:12;;;;;;;15.65;5.20;;;;;;;9.70;72.97;102589.22;5118056;28;20031;-68
2022/05/09 01:17:39;;;;;;;14.40;5.10;;;;;;;9.65;73.06;102590.88;5117916;28;20100;-66
2022/05/09 01:20:09;;;;;;;13.25;5.22;;;;;;;9.61;73.20;102586.44;5117893;28;20039;-66
2022/05/09 01:22:36;;;;;;;12.27;5.22;;;;;;;9.59;73.07;102579.44;5117616;28;20027;-68
2022/05/09 01:25:06;;;;;;;9.73;4.75;;;;;;;9.56;73.43;102582.88;5117608;28;20423;-67
2022/05/09 01:27:33;;;;;;;12.95;5.35;;;;;;;9.58;73.21;102590.72;5100350;28;20035;-66
2022/05/09 01:30:13;;;;;;;14.27;4.75;;;;;;;9.60;73.04;102584.69;5117844;28;20040;-68
2022/05/09 01:33:00;;;;;;;13.18;4.80;;;;;;;9.54;72.56;102586.28;5117606;28;20027;-67
2022/05/09 01:35:34;;;;;;;14.45;5.07;;;;;;;9.49;73.24;102582.75;5117697;28;20039;-68
2022/05/09 01:38:31;;;;;;;12.05;5.00;;;;;;;9.44;72.28;102582.63;5117690;28;20034;-67
2022/05/09 01:40:57;;;;;;;11.15;4.88;;;;;;;9.27;73.65;102586.66;5109686;28;20351;-67
2022/05/09 01:43:46;;;;;;;11.82;5.35;;;;;;;9.24;73.84;102582.25;5117438;28;20042;-66
2022/05/09 01:46:15;;;;;;;11.75;5.20;;;;;;;9.14;74.31;102572.47;5117653;28;20024;-68
2022/05/09 01:49:41;;;;;;;8.50;4.70;;;;;;;9.21;74.08;102576.06;5117475;28;20028;-67
2022/05/09 01:51:37;;;;;;;12.60;4.85;;;;;;;9.17;74.36;102584.72;5107560;27;20035;-68
2022/05/09 01:54:02;;;;;;;15.82;4.90;;;;;;;9.16;74.45;102589.06;5117319;28;20088;-66
2022/05/09 01:56:31;;;;;;;11.82;5.38;;;;;;;9.05;74.91;102583.59;5117372;28;20693;-67
2022/05/09 01:58:57;;;;;;;14.68;4.55;;;;;;;9.03;74.89;102585.31;5117493;28;20070;-66
2022/05/09 02:01:26;;;;;;;10.95;5.25;;;;;;;9.03;74.85;102581.81;5116904;28;20034;-67
2022/05/09 02:03:52;;;;;;;10.65;4.68;;;;;;;9.03;74.79;102585.31;5116746;28;20505;-68
2022/05/09 02:06:18;;;;;;;13.82;4.97;;;;;;;8.93;74.90;102588.59;5116865;28;20070;-68
2022/05/09 02:08:44;;;;;;;11.13;5.00;;;;;;;8.89;74.95;102593.69;5116747;28;20015;-68
2022/05/09 02:11:10;;;;;;;12.32;5.05;;;;;;;8.75;75.58;102577.75;5116847;28;20019;-67
2022/05/09 02:13:35;;;;;;;12.98;5.38;;;;;;;8.76;75.75;102587.34;5117017;28;20027;-66
2022/05/09 02:16:01;;;;;;;15.20;5.35;;;;;;;8.79;76.18;102592.63;5116839;28;20027;-66
2022/05/09 02:18:27;;;;;;;11.40;5.25;;;;;;;8.80;75.83;102583.94;5116933;28;20043;-64
2022/05/09 02:20:52;;;;;;;13.80;5.50;;;;;;;8.72;76.02;102578.56;5116695;28;20477;-66
2022/05/09 02:23:18;;;;;;;12.70;5.43;;;;;;;8.69;76.27;102578.47;5116830;28;20023;-66
2022/05/09 02:25:45;;;;;;;10.30;5.55;;;;;;;8.65;75.98;102581.88;5116604;28;20108;-69
2022/05/09 02:28:12;;;;;;;11.55;5.80;;;;;;;8.64;76.55;102580.13;5116503;28;20035;-65
2022/05/09 02:30:38;;;;;;;13.82;5.35;;;;;;;8.57;76.17;102562.56;5116472;28;20035;-65
2022/05/09 02:33:05;;;;;;;13.02;5.28;;;;;;;8.66;76.26;102581.00;5116371;28;20024;-68
2022/05/09 02:35:33;;;;;;;13.10;5.00;;;;;;;8.55;76.54;102574.69;5116298;28;20027;-65
2022/05/09 02:37:58;;;;;;;9.95;5.07;;;;;;;8.55;77.06;102571.19;5116651;28;20088;-65
2022/05/09 02:40:24;;;;;;;14.00;5.25;;;;;;;8.48;76.90;102570.19;5116655;28;20409;-66
2022/05/09 02:42:50;;;;;;;10.73;5.63;;;;;;;8.51;76.82;102559.81;5116592;28;20034;-67
2022/05/09 02:45:16;;;;;;;12.73;5.30;;;;;;;8.55;76.58;102573.81;5116132;28;20031;-67
2022/05/09 02:47:41;;;;;;;10.63;5.22;;;;;;;8.49;76.78;102569.31;5116322;28;20047;-67
2022/05/09 02:50:08;;;;;;;12.43;5.40;;;;;;;8.38;76.85;102565.59;5116510;28;20091;-66
2022/05/09 02:52:34;;;;;;;12.15;4.93;;;;;;;8.35;77.18;102566.41;5098267;28;20384;-65
2022/05/09 02:54:59;;;;;;;13.18;5.35;;;;;;;8.28;77.08;102568.81;5116181;28;20103;-65
2022/05/09 02:57:25;;;;;;;8.98;5.03;;;;;;;8.08;77.75;102570.06;5098091;28;20450;-66
2022/05/09 02:59:50;;;;;;;12.85;5.65;;;;;;;7.88;77.85;102552.19;5116127;28;20030;-65
2022/05/09 03:02:16;;;;;;;15.38;5.60;;;;;;;8.00;78.50;102562.03;5115757;28;20427;-66
2022/05/09 03:04:41;;;;;;;11.95;5.90;;;;;;;7.89;78.85;102550.47;5115452;28;20031;-66
2022/05/09 03:07:13;;;;;;;12.98;5.50;;;;;;;8.04;78.93;102569.97;5115982;28;20035;-66
2022/05/09 03:09:41;;;;;;;14.23;5.47;;;;;;;8.01;79.15;102569.88;5115703;28;20451;-67
2022/05/09 03:12:07;;;;;;;16.05;5.78;;;;;;;7.99;79.05;102566.34;5115975;28;20035;-67
2022/05/09 03:14:36;;;;;;;13.13;5.90;;;;;;;7.92;79.77;102568.78;5112093;28;20037;-67
2022/05/09 03:17:03;;;;;;;15.82;5.60;;;;;;;7.88;80.05;102564.34;5115887;28;20032;-66
2022/05/09 03:19:29;;;;;;;13.57;5.70;;;;;;;7.86;79.97;102556.47;5115530;28;20031;-67
2022/05/09 03:21:54;;;;;;;14.00;5.15;;;;;;;7.98;79.97;102561.09;5115476;28;20047;-66
2022/05/09 03:24:19;;;;;;;11.55;5.63;;;;;;;7.98;79.82;102567.19;5115156;28;20061;-67
2022/05/09 03:26:45;;;;;;;13.70;5.45;;;;;;;8.01;79.94;102558.56;5115732;28;20031;-67
2022/05/09 03:29:12;;;;;;;14.25;6.07;;;;;;;7.97;79.88;102552.41;5115019;28;20047;-67
2022/05/09 03:31:38;;;;;;;12.88;5.68;;;;;;;7.95;80.29;102554.13;5115600;28;20043;-67
2022/05/09 03:34:03;;;;;;;11.20;5.95;;;;;;;7.90;79.98;102550.50;5115390;28;20027;-67
2022/05/09 03:36:28;;;;;;;17.00;5.97;;;;;;;7.96;80.31;102557.59;5115494;28;20107;-66
2022/05/09 03:38:54;;;;;;;15.23;6.07;;;;;;;7.93;80.25;102555.81;5115596;28;20030;-66
2022/05/09 03:41:20;;;;;;;15.63;5.68;;;;;;;7.91;79.96;102546.19;5115013;28;20031;-66
2022/05/09 03:43:46;;;;;;;12.32;5.78;;;;;;;7.78;80.38;102546.72;5115280;28;20110;-65
2022/05/09 03:46:11;;;;;;;13.20;5.75;;;;;;;7.81;80.03;102545.06;5115297;28;20102;-66
2022/05/09 03:48:36;;;;;;;13.30;5.82;;;;;;;7.73;80.58;102546.59;5115210;28;20035;-67
2022/05/09 03:51:02;;;;;;;17.00;6.57;;;;;;;7.73;81.12;102546.59;5115380;28;20039;-66
2022/05/09 03:53:28;;;;;;;16.17;6.45;;;;;;;7.77;81.03;102551.06;5115391;28;20030;-67
2022/05/09 03:55:53;;;;;;;14.18;5.90;;;;;;;7.76;80.36;102544.06;5115502;28;20032;-66
2022/05/09 03:58:19;;;;;;;15.07;5.88;;;;;;;7.77;80.04;102548.44;5115070;28;20043;-67
2022/05/09 04:00:45;;;;;;;13.45;6.15;;;;;;;7.67;80.67;102543.81;5115123;28;20027;-66
2022/05/09 04:03:11;;;;;;;13.68;6.10;;;;;;;7.62;80.95;102543.69;5115281;28;20316;-65
2022/05/09 04:05:37;;;;;;;16.27;6.40;;;;;;;7.74;80.80;102545.75;5094300;28;20046;-67
2022/05/09 04:08:07;;;;;;;16.15;6.18;;;;;;;7.71;80.94;102542.19;5115372;28;20106;-67
2022/05/09 04:10:35;;;;;;;16.15;6.07;;;;;;;7.73;80.88;102554.41;5115298;28;20028;-66
2022/05/09 04:13:01;;;;;;;19.38;6.53;;;;;;;7.78;80.83;102554.53;5115076;28;20032;-66
2022/05/09 04:18:12;;;;;;;14.75;6.43;;;;;;;7.73;81.17;102546.59;5119702;28;20058;-66
2022/05/09 04:20:38;;;;;;;15.52;6.10;;;;;;;7.76;80.48;102540.59;5118988;28;20100;-66
2022/05/09 04:23:04;;;;;;;15.13;6.05;;;;;;;7.70;80.89;102549.13;5119203;28;20431;-66
2022/05/09 04:25:32;;;;;;;19.02;6.88;;;;;;;7.59;81.83;102547.97;5118603;28;20096;-66
2022/05/09 04:27:59;;;;;;;16.02;6.63;;;;;;;7.51;82.11;102542.53;5118847;28;20032;-66
2022/05/09 04:30:25;;;;;;;24.13;6.55;;;;;;;7.57;82.43;102544.44;5119132;28;20048;-67
2022/05/09 04:32:52;;;;;;;22.27;7.28;;;;;;;7.60;82.62;102536.72;5119327;28;20465;-66
2022/05/09 04:35:22;;;;;;;20.02;7.32;;;;;;;7.71;82.76;102544.78;5118880;28;20024;-66
2022/05/09 04:37:52;;;;;;;15.25;6.38;;;;;;;7.75;82.79;102539.69;5118758;28;20028;-67
2022/05/09 04:40:29;;;;;;;14.20;6.50;;;;;;;7.80;82.32;102538.06;5118629;28;20085;-67
2022/05/09 04:42:56;;;;;;;14.77;6.95;;;;;;;7.83;82.44;102537.28;5118848;28;20024;-66
2022/05/09 04:45:22;;;;;;;18.73;7.05;;;;;;;7.77;82.58;102535.41;5118575;28;20084;-66
2022/05/09 04:47:50;;;;;;;17.27;7.10;;;;;;;7.83;82.23;102532.94;5118638;28;20112;-67
2022/05/09 04:50:18;;;;;;;14.02;6.53;;;;;;;7.97;81.78;102531.53;5118944;28;20435;-67
2022/05/09 04:52:43;;;;;;;16.35;7.13;;;;;;;8.05;81.95;102536.97;5118521;28;20031;-66
2022/05/09 04:55:10;;;;;;;15.15;6.75;;;;;;;8.02;81.19;102539.50;5118241;28;20035;-66
2022/05/09 04:57:35;;;;;;;15.88;6.68;;;;;;;7.96;81.67;102535.03;5118515;28;20031;-67
2022/05/09 05:00:01;;;;;;;18.48;7.35;;;;;;;8.01;82.25;102536.00;5118597;28;20062;-66
2022/05/09 05:02:27;;;;;;;20.00;7.32;;;;;;;8.01;82.01;102525.56;5118446;28;20027;-67
2022/05/09 05:04:52;;;;;;;19.58;7.93;;;;;;;8.04;81.47;102525.66;5118224;28;20031;-67
2022/05/09 05:07:17;;;;;;;17.73;7.20;;;;;;;8.06;81.53;102528.28;5118130;28;20027;-68
2022/05/09 05:09:43;;;;;;;18.77;8.05;;;;;;;8.13;81.88;102525.00;5118616;28;20354;-66
2022/05/09 05:12:09;;;;;;;17.45;6.85;;;;;;;8.16;81.51;102511.13;5118086;28;20374;-66
2022/05/09 05:14:34;;;;;;;15.18;7.97;;;;;;;8.28;81.12;102516.66;5118364;28;20103;-68
2022/05/09 05:16:59;;;;;;;23.05;7.82;;;;;;;8.35;81.35;102515.94;5117913;28;20062;-67
2022/05/09 05:19:27;;;;;;;16.23;7.47;;;;;;;8.44;80.93;102524.00;5118062;28;20031;-68
2022/05/09 05:21:52;;;;;;;16.05;7.50;;;;;;;8.50;81.27;102529.34;5114309;28;20032;-67
2022/05/09 05:24:18;;;;;;;15.88;7.30;;;;;;;8.58;80.44;102533.00;5097729;28;20034;-64
2022/05/09 05:26:43;;;;;;;18.75;6.63;;;;;;;8.59;79.72;102521.72;5096456;28;20039;-68
2022/05/09 05:29:08;;;;;;;17.65;7.03;;;;;;;8.66;79.59;102534.03;5097588;28;20427;-68
2022/05/09 05:31:34;;;;;;;15.38;7.15;;;;;;;8.72;79.79;102528.06;5096921;28;20055;-63
2022/05/09 05:33:59;;;;;;;16.33;6.80;;;;;;;8.76;79.55;102523.81;5097412;28;20081;-67
2022/05/09 05:36:24;;;;;;;13.40;7.15;;;;;;;8.82;79.82;102531.78;5096927;28;20394;-66
2022/05/09 05:38:51;;;;;;;15.55;7.05;;;;;;;8.77;78.17;102525.56;5110146;28;20111;-63
2022/05/09 05:41:21;;;;;;;15.85;6.88;;;;;;;8.77;79.17;102531.69;5117368;28;20118;-66
2022/05/09 05:43:46;;;;;;;13.27;6.75;;;;;;;8.91;78.72;102535.44;5117491;28;20027;-68
2022/05/09 05:46:12;;;;;;;16.77;7.32;;;;;;;8.99;78.41;102530.41;5117608;28;20027;-67
2022/05/09 05:48:38;;;;;;;15.02;7.13;;;;;;;9.20;78.60;102520.34;5117515;28;20051;-67
2022/05/09 05:51:03;;;;;;;16.50;6.78;;;;;;;10.24;74.91;102524.75;5117080;28;20031;-66
2022/05/09 05:53:29;;;;;;;20.00;6.40;;;;;;;10.63;72.21;102517.47;5117194;28;20498;-66
2022/05/09 05:55:54;;;;;;;15.43;6.97;;;;;;;10.51;72.38;102519.94;5117114;28;20027;-65
2022/05/09 05:58:22;;;;;;;15.30;6.88;;;;;;;10.30;73.10;102517.00;5117088;28;20032;-65
2022/05/09 06:00:47;;;;;;;19.63;7.03;;;;;;;10.08;73.63;102529.72;5117454;28;20036;-67
2022/05/09 06:03:14;;;;;;;12.23;6.82;;;;;;;9.94;74.83;102526.00;5117181;28;20100;-64
2022/05/09 06:05:39;;;;;;;21.35;7.40;;;;;;;9.93;74.65;102526.88;5114188;28;20069;-64
2022/05/09 06:08:05;;;;;;;17.20;7.35;;;;;;;9.95;74.47;102533.00;5096939;28;20032;-64
2022/05/09 06:10:30;;;;;;;18.35;7.20;;;;;;;9.94;74.59;102518.16;5093225;28;20047;-63
2022/05/09 06:12:56;;;;;;;18.40;7.00;;;;;;;10.04;73.16;102533.13;5096613;28;20038;-62
2022/05/09 06:15:33;;;;;;;20.85;7.18;;;;;;;10.09;73.79;102523.63;5096143;28;20020;-63
2022/05/09 06:18:05;;;;;;;22.85;7.22;;;;;;;10.22;73.28;102521.22;5096106;28;20066;-65
2022/05/09 06:20:33;;;;;;;19.63;7.53;;;;;;;10.28;73.37;102523.94;5099479;28;20035;-64
2022/05/09 06:23:00;;;;;;;21.13;8.05;;;;;;;10.35;73.01;102525.81;5116531;28;20112;-63
2022/05/09 06:25:28;;;;;;;26.52;7.93;;;;;;;10.39;73.27;102525.84;5116631;28;20032;-62
2022/05/09 06:27:54;;;;;;;19.48;8.10;;;;;;;10.44;72.50;102526.81;5116723;28;20039;-65
2022/05/09 06:30:21;;;;;;;15.75;7.10;;;;;;;10.51;72.70;102529.53;5116909;28;20488;-64
2022/05/09 06:32:47;;;;;;;19.92;8.23;;;;;;;10.56;71.82;102525.25;5116334;28;20458;-65
2022/05/09 06:35:20;;;;;;;15.95;6.90;;;;;;;10.63;71.49;102520.09;5116484;28;20034;-66
2022/05/09 06:37:45;;;;;;;18.30;6.95;;;;;;;10.69;71.25;102508.84;5113861;28;20123;-63
2022/05/09 06:40:11;;;;;;;21.10;7.65;;;;;;;10.83;71.02;102515.09;5112669;28;20058;-62
2022/05/09 06:42:37;;;;;;;16.38;7.07;;;;;;;10.98;69.77;102514.41;5115954;28;20035;-63
2022/05/09 06:45:03;;;;;;;17.23;7.55;;;;;;;11.12;69.23;102515.44;5115633;28;20049;-64
2022/05/09 06:47:29;;;;;;;17.48;7.32;;;;;;;11.16;68.20;102498.91;5116077;28;20068;-62
2022/05/09 06:50:01;;;;;;;13.90;6.80;;;;;;;11.23;68.87;102507.72;5116082;28;20032;-64
2022/05/09 06:52:26;;;;;;;18.40;7.45;;;;;;;11.34;67.64;102513.94;5116225;28;20400;-66
2022/05/09 06:54:51;;;;;;;20.40;7.03;;;;;;;11.31;68.36;102514.78;5116101;28;20070;-65
2022/05/09 06:57:17;;;;;;;18.02;7.53;;;;;;;11.44;69.00;102513.16;5083209;28;20035;-67
2022/05/09 06:59:42;;;;;;;20.02;7.70;;;;;;;11.66;68.04;102507.25;5095146;28;20348;-67
2022/05/09 07:02:11;;;;;;;23.08;7.60;;;;;;;12.15;66.62;102512.91;5095675;28;20062;-58
2022/05/09 07:04:38;;;;;;;17.55;7.10;;;;;;;12.27;65.28;102517.38;5095626;28;20141;-64
2022/05/09 07:07:03;;;;;;;18.52;7.40;;;;;;;12.20;66.21;102509.44;5092236;28;20047;-67
2022/05/09 07:09:28;;;;;;;19.55;7.60;;;;;;;12.17;65.85;102506.81;5095151;28;20024;-63
2022/05/09 07:11:54;;;;;;;17.65;6.95;;;;;;;12.18;65.99;102518.19;5095093;28;20427;-63
2022/05/09 07:14:20;;;;;;;20.83;7.50;;;;;;;12.16;65.95;102502.41;5095201;28;20060;-63
2022/05/09 07:16:45;;;;;;;15.77;7.10;;;;;;;12.26;65.70;102507.75;5076070;28;20197;-65
2022/05/09 07:19:11;;;;;;;20.20;7.25;;;;;;;12.22;64.97;102495.47;5095095;28;20024;-64
2022/05/09 07:21:36;;;;;;;16.90;6.88;;;;;;;12.30;64.60;102506.88;5094980;28;20366;-66
2022/05/09 07:24:01;;;;;;;18.27;6.85;;;;;;;12.32;64.80;102508.63;5094862;28;20059;-63
2022/05/09 07:26:27;;;;;;;19.95;7.10;;;;;;;12.31;65.36;102509.50;5095016;28;20032;-66
2022/05/09 07:28:52;;;;;;;18.23;7.35;;;;;;;12.32;65.45;102500.75;5094540;28;20515;-64
2022/05/09 07:31:18;;;;;;;19.17;6.85;;;;;;;12.36;64.99;102499.03;5094475;28;20405;-63
2022/05/09 07:33:44;;;;;;;15.52;7.22;;;;;;;12.46;64.97;102508.75;5094706;28;20055;-63
2022/05/09 07:36:09;;;;;;;18.95;7.00;;;;;;;12.51;65.07;102502.63;5094846;28;20032;-65
2022/05/09 07:38:34;;;;;;;16.33;7.82;;;;;;;12.57;65.02;102487.78;5094941;28;20350;-63
2022/05/09 07:41:00;;;;;;;21.58;7.43;;;;;;;12.71;64.55;102494.84;5094774;28;20077;-63
2022/05/09 07:43:29;;;;;;;14.77;6.50;;;;;;;12.82;64.06;102493.13;5094691;28;20038;-66
2022/05/09 07:45:55;;;;;;;14.27;6.78;;;;;;;12.84;64.20;102488.75;5094958;28;20032;-65
2022/05/09 07:48:21;;;;;;;18.63;7.35;;;;;;;12.95;63.75;102498.44;5100936;28;20043;-67
2022/05/09 07:50:47;;;;;;;15.27;7.28;;;;;;;13.00;64.05;102501.94;5114946;28;20462;-65
2022/05/09 07:53:19;;;;;;;18.45;7.22;;;;;;;12.90;63.64;102480.91;5115085;28;20035;-65
2022/05/09 07:55:45;;;;;;;15.40;6.80;;;;;;;13.11;63.75;102493.25;5115145;28;20026;-67
2022/05/09 07:58:11;;;;;;;17.23;7.13;;;;;;;13.21;63.61;102497.66;5115074;28;20028;-67
2022/05/09 08:00:38;;;;;;;19.90;7.20;;;;;;;13.18;63.34;102488.88;5114951;28;20035;-68
2022/05/09 08:03:04;;;;;;;16.77;7.10;;;;;;;13.34;64.11;102488.03;5114946;28;20111;-65
2022/05/09 08:05:30;;;;;;;13.10;6.93;;;;;;;13.49;63.69;102500.34;5114685;28;20034;-65
2022/05/09 08:07:56;;;;;;;14.60;6.85;;;;;;;13.57;63.30;102494.22;5115150;28;20031;-66
2022/05/09 08:10:21;;;;;;;14.10;6.53;;;;;;;13.61;61.29;102494.22;5115140;28;20024;-66
2022/05/09 08:12:48;;;;;;;11.93;6.07;;;;;;;13.65;60.49;102496.84;5114337;28;20354;-67
2022/05/09 08:15:16;;;;;;;14.93;6.32;;;;;;;13.71;60.68;102496.84;5114608;28;20031;-66
2022/05/09 08:17:41;;;;;;;13.55;5.63;;;;;;;13.78;60.71;102489.84;5114965;28;20032;-66
2022/05/09 08:20:08;;;;;;;13.30;5.97;;;;;;;13.93;61.34;102495.09;5114712;28;20118;-68
2022/05/09 08:22:33;;;;;;;15.15;6.00;;;;;;;13.98;61.14;102492.47;5111390;28;20119;-68
2022/05/09 08:25:00;;;;;;;13.77;6.00;;;;;;;14.07;59.89;102495.94;5115056;28;20027;-68
2022/05/09 08:27:25;;;;;;;14.52;5.78;;;;;;;14.13;59.56;102488.03;5114588;28;20046;-68
2022/05/09 08:29:54;;;;;;;16.00;5.72;;;;;;;14.24;60.80;102494.16;5114124;28;20378;-67
2022/05/09 08:32:19;;;;;;;13.27;5.40;;;;;;;14.32;59.76;102486.25;5115080;28;20355;-69
2022/05/09 08:34:45;;;;;;;12.50;5.70;;;;;;;14.39;59.09;102490.59;5114441;28;20024;-65
2022/05/09 08:37:10;;;;;;;11.52;5.70;;;;;;;14.53;58.99;102480.09;5114848;28;20030;-66
2022/05/09 08:39:35;;;;;;;13.77;5.68;;;;;;;14.66;58.94;102488.81;5114998;28;20028;-67
2022/05/09 08:42:05;;;;;;;13.38;5.38;;;;;;;14.69;58.01;102486.16;5114642;28;20114;-69
2022/05/09 08:44:45;;;;;;;17.55;5.95;;;;;;;14.88;58.43;102486.06;5114965;28;20470;-66
2022/05/09 08:47:44;;;;;;;14.95;5.78;;;;;;;14.98;58.94;102485.13;5114444;28;20028;-67
2022/05/09 08:50:23;;;;;;;16.10;5.68;;;;;;;15.13;57.61;102480.66;5114593;28;20434;-67
2022/05/09 08:53:02;;;;;;;11.30;5.80;;;;;;;15.39;57.40;102488.41;5114382;28;20023;-68
2022/05/09 08:55:38;;;;;;;12.77;6.05;;;;;;;15.55;55.92;102484.75;5111142;28;20039;-66
2022/05/09 08:58:19;;;;;;;12.95;5.47;;;;;;;15.80;56.11;102485.47;5104745;28;20060;-64
2022/05/09 09:00:46;;;;;;;12.25;5.60;;;;;;;17.25;50.48;102472.31;5093758;28;20032;-64
2022/05/09 09:03:24;;;;;;;9.88;4.20;;;;;;;18.86;45.21;102459.66;5102464;28;20039;-67
2022/05/09 09:05:52;;;;;;;13.10;4.20;;;;;;;20.73;40.75;102449.50;5118126;28;20036;-66
2022/05/09 09:08:47;;;;;;;9.48;4.47;;;;;;;21.78;40.11;102449.66;5118144;28;20035;-68
2022/05/09 09:11:15;;;;;;;12.68;4.63;;;;;;;22.21;38.18;102437.47;5070211;28;20123;-67
2022/05/09 09:14:19;;;;;;;9.45;3.70;;;;;;;22.39;39.79;102443.94;5117753;28;20030;-69
2022/05/09 09:17:24;;;;;;;10.02;3.25;;;;;;;22.00;40.51;102438.25;5059247;28;20036;-67
2022/05/09 09:19:56;;;;;;;9.65;3.03;;;;;;;21.37;38.71;102439.50;5117419;28;20065;-68
2022/05/09 09:22:46;;;;;;;7.80;3.55;;;;;;;20.88;39.74;102445.50;5117558;28;20034;-67
2022/05/09 09:25:14;;;;;;;7.35;2.70;;;;;;;20.16;39.04;102439.59;5117401;28;20047;-68
2022/05/09 09:27:48;;;;;;;5.90;1.98;;;;;;;19.56;40.81;102444.75;5117429;28;20031;-67
2022/05/09 09:30:19;;;;;;;5.63;2.65;;;;;;;19.24;42.29;102446.38;5116908;28;20048;-66
2022/05/09 09:33:09;;;;;;;6.50;2.47;;;;;;;19.25;41.95;102444.59;5117201;28;20434;-67
2022/05/09 09:36:00;;;;;;;8.60;2.50;;;;;;;19.17;42.80;102447.44;5116404;28;20072;-67
2022/05/09 09:38:45;;;;;;;8.95;2.83;;;;;;;19.16;42.56;102440.38;5117550;28;20024;-65
2022/05/09 09:41:15;;;;;;;9.85;3.15;;;;;;;19.13;41.80;102440.44;5117146;28;20070;-68
2022/05/09 09:43:40;;;;;;;11.02;3.20;;;;;;;19.16;42.18;102440.38;5117284;28;20019;-68
2022/05/09 09:46:07;;;;;;;8.13;2.60;;;;;;;19.18;42.15;102424.44;5099246;28;20539;-68
2022/05/09 09:48:34;;;;;;;6.63;3.10;;;;;;;19.34;41.65;102439.94;5117132;28;20088;-66
2022/05/09 09:51:07;;;;;;;9.88;2.97;;;;;;;19.46;42.53;102436.09;5098926;28;20042;-68
2022/05/09 09:53:50;;;;;;;10.48;3.25;;;;;;;19.60;42.89;102438.44;5116898;28;20043;-65
2022/05/09 09:56:21;;;;;;;8.48;3.90;;;;;;;19.66;40.73;102433.84;5116945;28;20024;-66
2022/05/09 09:58:52;;;;;;;8.73;2.97;;;;;;;19.77;40.59;102418.50;5116930;28;20074;-68
2022/05/09 10:01:26;;;;;;;7.68;3.00;;;;;;;19.87;40.37;102418.28;5098667;28;20115;-68
2022/05/09 10:04:09;;;;;;;8.05;3.50;;;;;;;19.80;40.42;102399.81;5117071;28;20030;-66
2022/05/09 10:06:59;;;;;;;8.65;3.38;;;;;;;20.00;40.19;102417.88;5116960;28;20040;-67
2022/05/09 10:09:27;;;;;;;5.40;2.45;;;;;;;20.12;38.02;102412.22;5117120;28;20047;-66
2022/05/09 10:11:53;;;;;;;7.72;2.60;;;;;;;20.24;38.39;102405.72;5116764;28;20418;-66
2022/05/09 10:14:35;;;;;;;8.48;2.63;;;;;;;20.33;39.27;102405.41;5116075;28;20133;-66
2022/05/09 10:17:25;;;;;;;7.47;2.80;;;;;;;20.37;37.80;102411.56;5116620;28;20035;-66
2022/05/09 10:19:55;;;;;;;7.68;2.67;;;;;;;20.32;37.70;102397.50;5116638;28;20055;-67
2022/05/09 10:25:22;;;;;;;7.43;2.80;;;;;;;20.76;38.36;102388.22;5116232;28;20062;-67
2022/05/09 10:28:06;;;;;;;7.78;3.03;;;;;;;20.85;38.93;102387.91;5098807;28;20362;-66
2022/05/09 10:30:38;;;;;;;11.15;3.47;;;;;;;21.02;38.12;102388.25;5098256;28;20073;-66
2022/05/09 10:33:13;;;;;;;8.65;3.33;;;;;;;20.93;38.15;102388.56;5116591;28;20343;-66
2022/05/09 10:35:51;;;;;;;7.32;3.25;;;;;;;21.04;39.24;102378.44;5099314;28;20023;-66
2022/05/09 10:38:32;;;;;;;9.05;3.13;;;;;;;21.25;38.66;102373.34;5116556;28;20310;-66
2022/05/09 10:41:09;;;;;;;7.57;3.08;;;;;;;21.34;38.08;102383.69;5115711;28;20340;-67
2022/05/09 10:43:57;;;;;;;10.02;3.40;;;;;;;21.54;38.31;102376.75;5097970;28;20023;-67
2022/05/09 10:46:35;;;;;;;10.40;3.40;;;;;;;21.35;37.55;102372.97;5116451;28;20034;-64
2022/05/09 10:49:19;;;;;;;6.45;3.60;;;;;;;21.48;38.57;102373.41;5116254;28;20022;-67
2022/05/09 10:51:59;;;;;;;10.05;3.67;;;;;;;21.59;37.76;102375.72;5116200;28;20043;-67
2022/05/09 10:55:01;;;;;;;8.95;3.33;;;;;;;21.76;38.72;102365.34;5115674;28;20515;-67
2022/05/09 10:57:33;;;;;;;10.50;4.63;;;;;;;21.76;37.54;102365.34;5115815;28;20374;-67
2022/05/09 11:00:23;;;;;;;8.30;4.15;;;;;;;21.65;37.91;102362.16;5115770;28;20088;-68
2022/05/09 11:03:14;;;;;;;8.75;4.40;;;;;;;21.64;38.02;102360.47;5115645;28;20457;-68
2022/05/09 11:06:12;;;;;;;8.48;3.88;;;;;;;21.67;38.28;102361.19;5115546;28;20032;-67
2022/05/09 11:09:08;;;;;;;7.63;4.13;;;;;;;21.87;38.51;102360.50;5101764;28;20043;-69
2022/05/09 11:12:00;;;;;;;9.90;4.20;;;;;;;21.89;37.64;102359.50;5115804;28;20429;-69
2022/05/09 11:14:45;;;;;;;8.15;4.00;;;;;;;21.97;37.79;102345.03;5115331;28;20089;-67
2022/05/09 11:17:35;;;;;;;8.02;4.05;;;;;;;22.00;37.20;102348.47;5115681;28;20032;-67
2022/05/09 11:20:46;;;;;;;11.07;4.30;;;;;;;22.07;38.06;102346.47;5115741;28;20403;-66
2022/05/09 11:23:33;;;;;;;8.35;3.95;;;;;;;22.21;37.72;102342.34;5115594;28;20039;-67
2022/05/09 11:26:02;;;;;;;10.20;4.03;;;;;;;22.26;36.84;102339.50;5114644;28;20036;-68
2022/05/09 11:28:30;;;;;;;12.18;4.60;;;;;;;22.16;36.14;102331.00;5115611;28;20031;-67
2022/05/09 11:31:39;;;;;;;12.75;4.65;;;;;;;22.21;37.50;102329.00;5114848;28;20062;-69
2022/05/09 11:34:04;;;;;;;10.20;4.65;;;;;;;22.25;36.69;102329.75;5100159;28;20107;-68
2022/05/09 11:36:45;;;;;;;13.73;4.70;;;;;;;22.25;36.36;102329.75;5115393;28;20508;-66
2022/05/09 11:39:32;;;;;;;10.07;5.00;;;;;;;22.06;36.08;102320.72;5115657;28;20604;-67
2022/05/09 11:45:05;;;;;;;11.93;4.63;;;;;;;22.28;36.17;102316.31;5115724;28;20045;-67